sensor_id;sensor_type;location;lat;lon;timestamp;pressure;altitude;pressure_sealevel;temperature;humidity
41234;BME280;26968;42.686;23.352;2023-02-20T00:00:54;95549.00;;;10.28;nan
41234;BME280;26968;42.686;23.352;2023-02-20T00:03:20;95498.22;;;9.79;nan
41234;BME280;26968;42.686;23.352;2023-02-20T00:05:45;95556.59;;;10.15;nan
41234;BME280;26968;42.686;23.352;2023-02-20T00:08:10;95496.63;;;9.68;nan
41234;BME280;26968;42.686;23.352;2023-02-20T00:10:36;95562.94;;;10.03;nan
41234;BME280;26968;42.686;23.352;2023-02-20T00:13:01;95494.47;;;9.60;nan
41234;BME280;26968;42.686;23.352;2023-02-20T00:15:27;95475.88;;;9.50;nan
41234;BME280;26968;42.686;23.352;2023-02-20T00:17:52;95504.75;;;9.56;nan
41234;BME280;26968;42.686;23.352;2023-02-20T00:20:20;95557.84;;;9.92;nan
41234;BME280;26968;42.686;23.352;2023-02-20T00:22:46;95548.09;;;9.97;nan
41234;BME280;26968;42.686;23.352;2023-02-20T00:25:14;95464.53;;;9.59;nan
41234;BME280;26968;42.686;23.352;2023-02-20T00:27:41;95502.47;;;9.80;nan
41234;BME280;26968;42.686;23.352;2023-02-20T00:30:12;95552.34;;;10.08;nan
41234;BME280;26968;42.686;23.352;2023-02-20T00:32:38;95531.91;;;9.84;nan
41234;BME280;26968;42.686;23.352;2023-02-20T00:35:04;95477.69;;;9.39;nan
41234;BME280;26968;42.686;23.352;2023-02-20T00:37:29;95465.47;;;9.28;nan
41234;BME280;26968;42.686;23.352;2023-02-20T00:39:55;95553.59;;;9.81;nan
41234;BME280;26968;42.686;23.352;2023-02-20T00:42:20;95493.63;;;9.49;nan
41234;BME280;26968;42.686;23.352;2023-02-20T00:44:46;95455.44;;;9.30;nan
41234;BME280;26968;42.686;23.352;2023-02-20T00:47:11;95488.31;;;9.44;nan
41234;BME280;26968;42.686;23.352;2023-02-20T00:49:36;95504.44;;;9.43;nan
41234;BME280;26968;42.686;23.352;2023-02-20T00:52:02;95560.69;;;9.70;nan
41234;BME280;26968;42.686;23.352;2023-02-20T00:54:27;95505.97;;;9.28;nan
41234;BME280;26968;42.686;23.352;2023-02-20T00:56:53;95560.13;;;9.63;nan
41234;BME280;26968;42.686;23.352;2023-02-20T00:59:18;95486.06;;;9.21;nan
41234;BME280;26968;42.686;23.352;2023-02-20T01:01:43;95496.34;;;9.12;nan
41234;BME280;26968;42.686;23.352;2023-02-20T01:04:09;95503.72;;;9.05;nan
41234;BME280;26968;42.686;23.352;2023-02-20T01:06:34;95415.72;;;8.36;nan
41234;BME280;26968;42.686;23.352;2023-02-20T01:09:00;95590.47;;;9.40;nan
41234;BME280;26968;42.686;23.352;2023-02-20T01:11:25;95528.56;;;9.04;nan
41234;BME280;26968;42.686;23.352;2023-02-20T01:13:50;95485.13;;;8.58;nan
41234;BME280;26968;42.686;23.352;2023-02-20T01:16:16;95600.78;;;9.37;nan
41234;BME280;26968;42.686;23.352;2023-02-20T01:18:41;95538.84;;;9.01;nan
41234;BME280;26968;42.686;23.352;2023-02-20T01:21:07;95556.66;;;9.10;nan
41234;BME280;26968;42.686;23.352;2023-02-20T01:23:32;95516.53;;;8.86;nan
41234;BME280;26968;42.686;23.352;2023-02-20T01:25:58;95588.81;;;9.29;nan
41234;BME280;26968;42.686;23.352;2023-02-20T01:28:23;95585.84;;;9.20;nan
41234;BME280;26968;42.686;23.352;2023-02-20T01:30:48;95563.22;;;9.03;nan
41234;BME280;26968;42.686;23.352;2023-02-20T01:33:14;95618.28;;;9.43;nan
41234;BME280;26968;42.686;23.352;2023-02-20T01:35:39;95578.16;;;9.19;nan
41234;BME280;26968;42.686;23.352;2023-02-20T01:38:05;95539.31;;;8.93;nan
41234;BME280;26968;42.686;23.352;2023-02-20T01:40:31;95611.13;;;9.43;nan
41234;BME280;26968;42.686;23.352;2023-02-20T01:42:58;95555.03;;;9.04;nan
41234;BME280;26968;42.686;23.352;2023-02-20T01:47:51;95599.16;;;9.36;nan
41234;BME280;26968;42.686;23.352;2023-02-20T01:50:19;95634.94;;;9.38;nan
41234;BME280;26968;42.686;23.352;2023-02-20T01:52:49;95595.03;;;9.13;nan
41234;BME280;26968;42.686;23.352;2023-02-20T01:55:21;95611.88;;;9.39;nan
41234;BME280;26968;42.686;23.352;2023-02-20T01:57:59;95641.50;;;9.31;nan
41234;BME280;26968;42.686;23.352;2023-02-20T02:00:25;95652.78;;;9.21;nan
41234;BME280;26968;42.686;23.352;2023-02-20T02:03:02;95584.22;;;8.82;nan
41234;BME280;26968;42.686;23.352;2023-02-20T02:05:30;95605.44;;;8.93;nan
41234;BME280;26968;42.686;23.352;2023-02-20T02:07:59;95634.41;;;9.04;nan
41234;BME280;26968;42.686;23.352;2023-02-20T02:10:30;95615.88;;;9.04;nan
41234;BME280;26968;42.686;23.352;2023-02-20T02:12:57;95530.41;;;8.35;nan
41234;BME280;26968;42.686;23.352;2023-02-20T02:15:23;95531.78;;;8.42;nan
41234;BME280;26968;42.686;23.352;2023-02-20T02:18:15;95614.53;;;9.02;nan
41234;BME280;26968;42.686;23.352;2023-02-20T02:24:09;95624.75;;;8.88;nan
41234;BME280;26968;42.686;23.352;2023-02-20T02:38:35;95636.59;;;8.32;nan
41234;BME280;26968;42.686;23.352;2023-02-20T02:44:18;95652.69;;;8.30;nan
41234;BME280;26968;42.686;23.352;2023-02-20T02:47:02;95612.19;;;8.03;nan
41234;BME280;26968;42.686;23.352;2023-02-20T02:52:01;95625.59;;;8.18;nan
41234;BME280;26968;42.686;23.352;2023-02-20T02:54:28;95665.66;;;8.32;nan
41234;BME280;26968;42.686;23.352;2023-02-20T02:57:18;95656.56;;;8.23;nan
41234;BME280;26968;42.686;23.352;2023-02-20T02:59:44;95661.06;;;8.22;nan
41234;BME280;26968;42.686;23.352;2023-02-20T03:02:14;95639.59;;;7.97;nan
41234;BME280;26968;42.686;23.352;2023-02-20T03:04:42;95674.03;;;8.24;nan
41234;BME280;26968;42.686;23.352;2023-02-20T03:07:12;95567.50;;;7.53;nan
41234;BME280;26968;42.686;23.352;2023-02-20T03:09:48;95672.84;;;8.14;nan
41234;BME280;26968;42.686;23.352;2023-02-20T03:12:17;95678.25;;;8.25;nan
41234;BME280;26968;42.686;23.352;2023-02-20T03:14:55;95674.69;;;8.14;nan
41234;BME280;26968;42.686;23.352;2023-02-20T03:17:49;95624.78;;;7.74;nan
41234;BME280;26968;42.686;23.352;2023-02-20T03:20:20;95673.03;;;8.08;nan
41234;BME280;26968;42.686;23.352;2023-02-20T03:22:51;95685.50;;;8.12;nan
41234;BME280;26968;42.686;23.352;2023-02-20T03:25:25;95682.53;;;8.09;nan
41234;BME280;26968;42.686;23.352;2023-02-20T03:28:02;95702.44;;;7.95;nan
41234;BME280;26968;42.686;23.352;2023-02-20T03:30:36;95687.19;;;7.80;nan
41234;BME280;26968;42.686;23.352;2023-02-20T03:33:28;95701.00;;;7.87;nan
41234;BME280;26968;42.686;23.352;2023-02-20T03:36:15;95633.75;;;7.34;nan
41234;BME280;26968;42.686;23.352;2023-02-20T03:39:11;95738.31;;;7.91;nan
41234;BME280;26968;42.686;23.352;2023-02-20T03:41:58;95711.66;;;7.92;nan
41234;BME280;26968;42.686;23.352;2023-02-20T03:44:43;95665.66;;;7.71;nan
41234;BME280;26968;42.686;23.352;2023-02-20T03:47:13;95713.56;;;7.97;nan
41234;BME280;26968;42.686;23.352;2023-02-20T03:49:41;95719.97;;;8.01;nan
41234;BME280;26968;42.686;23.352;2023-02-20T03:52:08;95565.75;;;7.03;nan
41234;BME280;26968;42.686;23.352;2023-02-20T03:54:35;95666.19;;;7.68;nan
41234;BME280;26968;42.686;23.352;2023-02-20T03:57:20;95707.22;;;7.98;nan
41234;BME280;26968;42.686;23.352;2023-02-20T03:59:54;95657.44;;;7.68;nan
41234;BME280;26968;42.686;23.352;2023-02-20T04:02:26;95666.09;;;7.63;nan
41234;BME280;26968;42.686;23.352;2023-02-20T04:04:56;95701.59;;;7.72;nan
41234;BME280;26968;42.686;23.352;2023-02-20T04:07:27;95651.41;;;7.34;nan
41234;BME280;26968;42.686;23.352;2023-02-20T04:09:57;95691.94;;;7.61;nan
41234;BME280;26968;42.686;23.352;2023-02-20T04:12:28;95646.13;;;7.34;nan
41234;BME280;26968;42.686;23.352;2023-02-20T04:14:56;95669.63;;;7.52;nan
41234;BME280;26968;42.686;23.352;2023-02-20T04:17:36;95724.78;;;7.87;nan
41234;BME280;26968;42.686;23.352;2023-02-20T04:20:04;95735.22;;;7.77;nan
41234;BME280;26968;42.686;23.352;2023-02-20T04:22:33;95702.00;;;7.64;nan
41234;BME280;26968;42.686;23.352;2023-02-20T04:27:41;95725.47;;;7.61;nan
41234;BME280;26968;42.686;23.352;2023-02-20T04:30:07;95685.94;;;7.49;nan
41234;BME280;26968;42.686;23.352;2023-02-20T04:32:34;95734.59;;;7.53;nan
41234;BME280;26968;42.686;23.352;2023-02-20T04:35:00;95651.41;;;7.17;nan
41234;BME280;26968;42.686;23.352;2023-02-20T04:37:25;95724.25;;;7.68;nan
41234;BME280;26968;42.686;23.352;2023-02-20T04:39:50;95654.63;;;7.19;nan
41234;BME280;26968;42.686;23.352;2023-02-20T04:42:16;95667.47;;;7.32;nan
41234;BME280;26968;42.686;23.352;2023-02-20T04:44:41;95687.66;;;7.39;nan
41234;BME280;26968;42.686;23.352;2023-02-20T04:47:12;95621.44;;;6.90;nan
41234;BME280;26968;42.686;23.352;2023-02-20T04:49:38;95708.41;;;7.18;nan
41234;BME280;26968;42.686;23.352;2023-02-20T04:52:03;95701.78;;;7.32;nan
41234;BME280;26968;42.686;23.352;2023-02-20T04:54:29;95724.19;;;7.47;nan
41234;BME280;26968;42.686;23.352;2023-02-20T04:56:54;95676.81;;;6.90;nan
41234;BME280;26968;42.686;23.352;2023-02-20T04:59:20;95646.13;;;6.84;nan
41234;BME280;26968;42.686;23.352;2023-02-20T05:01:45;95721.44;;;7.25;nan
41234;BME280;26968;42.686;23.352;2023-02-20T05:04:22;95690.41;;;6.98;nan
41234;BME280;26968;42.686;23.352;2023-02-20T05:06:53;95773.03;;;7.49;nan
41234;BME280;26968;42.686;23.352;2023-02-20T05:09:19;95712.72;;;7.08;nan
41234;BME280;26968;42.686;23.352;2023-02-20T05:11:45;95759.59;;;7.34;nan
41234;BME280;26968;42.686;23.352;2023-02-20T05:14:11;95734.13;;;7.11;nan
41234;BME280;26968;42.686;23.352;2023-02-20T05:16:37;95766.97;;;7.32;nan
41234;BME280;26968;42.686;23.352;2023-02-20T05:19:04;95748.69;;;7.14;nan
41234;BME280;26968;42.686;23.352;2023-02-20T05:21:30;95752.88;;;7.26;nan
41234;BME280;26968;42.686;23.352;2023-02-20T05:24:15;95622.97;;;6.41;nan
41234;BME280;26968;42.686;23.352;2023-02-20T05:26:40;95683.34;;;6.71;nan
41234;BME280;26968;42.686;23.352;2023-02-20T05:29:06;95718.53;;;6.93;nan
41234;BME280;26968;42.686;23.352;2023-02-20T05:31:34;95787.97;;;7.27;nan
41234;BME280;26968;42.686;23.352;2023-02-20T05:34:00;95644.91;;;6.30;nan
41234;BME280;26968;42.686;23.352;2023-02-20T05:36:25;95823.63;;;7.29;nan
41234;BME280;26968;42.686;23.352;2023-02-20T05:38:51;95787.63;;;7.07;nan
41234;BME280;26968;42.686;23.352;2023-02-20T05:41:17;95830.91;;;7.22;nan
41234;BME280;26968;42.686;23.352;2023-02-20T05:43:43;95718.06;;;6.68;nan
41234;BME280;26968;42.686;23.352;2023-02-20T05:46:09;95761.56;;;6.82;nan
41234;BME280;26968;42.686;23.352;2023-02-20T05:48:34;95812.09;;;7.19;nan
41234;BME280;26968;42.686;23.352;2023-02-20T05:51:00;95782.47;;;7.00;nan
41234;BME280;26968;42.686;23.352;2023-02-20T05:53:29;95634.91;;;6.03;nan
41234;BME280;26968;42.686;23.352;2023-02-20T05:55:55;95816.09;;;7.21;nan
41234;BME280;26968;42.686;23.352;2023-02-20T05:58:22;95782.25;;;7.02;nan
41234;BME280;26968;42.686;23.352;2023-02-20T06:00:47;95732.72;;;6.75;nan
41234;BME280;26968;42.686;23.352;2023-02-20T06:03:16;95730.81;;;6.59;nan
41234;BME280;26968;42.686;23.352;2023-02-20T06:05:42;95755.59;;;6.86;nan
41234;BME280;26968;42.686;23.352;2023-02-20T06:08:08;95828.84;;;7.24;nan
41234;BME280;26968;42.686;23.352;2023-02-20T06:10:33;95736.53;;;6.68;nan
41234;BME280;26968;42.686;23.352;2023-02-20T06:13:00;95837.78;;;7.40;nan
41234;BME280;26968;42.686;23.352;2023-02-20T06:15:25;95729.84;;;6.77;nan
41234;BME280;26968;42.686;23.352;2023-02-20T06:17:51;95724.09;;;6.80;nan
41234;BME280;26968;42.686;23.352;2023-02-20T06:20:16;95792.59;;;7.20;nan
41234;BME280;26968;42.686;23.352;2023-02-20T06:22:42;95787.66;;;7.23;nan
41234;BME280;26968;42.686;23.352;2023-02-20T06:25:07;95756.34;;;6.98;nan
41234;BME280;26968;42.686;23.352;2023-02-20T06:27:33;95837.78;;;7.68;nan
41234;BME280;26968;42.686;23.352;2023-02-20T06:29:59;95744.53;;;7.01;nan
41234;BME280;26968;42.686;23.352;2023-02-20T06:32:24;95794.00;;;7.39;nan
41234;BME280;26968;42.686;23.352;2023-02-20T06:34:50;95836.00;;;7.74;nan
41234;BME280;26968;42.686;23.352;2023-02-20T06:37:15;95761.34;;;7.28;nan
41234;BME280;26968;42.686;23.352;2023-02-20T06:39:41;95738.94;;;7.14;nan
41234;BME280;26968;42.686;23.352;2023-02-20T06:42:10;95808.63;;;7.63;nan
41234;BME280;26968;42.686;23.352;2023-02-20T06:44:36;95846.50;;;7.41;nan
41234;BME280;26968;42.686;23.352;2023-02-20T06:47:01;95787.34;;;7.36;nan
41234;BME280;26968;42.686;23.352;2023-02-20T06:49:33;95827.94;;;7.81;nan
41234;BME280;26968;42.686;23.352;2023-02-20T06:51:58;95755.72;;;7.25;nan
41234;BME280;26968;42.686;23.352;2023-02-20T06:54:23;95764.44;;;7.25;nan
41234;BME280;26968;42.686;23.352;2023-02-20T06:56:49;95841.06;;;7.75;nan
41234;BME280;26968;42.686;23.352;2023-02-20T06:59:15;95843.59;;;7.87;nan
41234;BME280;26968;42.686;23.352;2023-02-20T07:01:42;95827.84;;;7.59;nan
41234;BME280;26968;42.686;23.352;2023-02-20T07:04:27;95855.28;;;7.74;nan
41234;BME280;26968;42.686;23.352;2023-02-20T07:06:53;95821.19;;;7.56;nan
41234;BME280;26968;42.686;23.352;2023-02-20T07:09:19;95796.06;;;7.37;nan
41234;BME280;26968;42.686;23.352;2023-02-20T07:11:45;95739.00;;;7.03;nan
41234;BME280;26968;42.686;23.352;2023-02-20T07:14:12;95769.03;;;7.30;nan
41234;BME280;26968;42.686;23.352;2023-02-20T07:16:37;95712.09;;;7.01;nan
41234;BME280;26968;42.686;23.352;2023-02-20T07:19:02;95771.28;;;7.38;nan
41234;BME280;26968;42.686;23.352;2023-02-20T07:21:28;95874.44;;;7.98;nan
41234;BME280;26968;42.686;23.352;2023-02-20T07:23:53;95793.19;;;7.55;nan
41234;BME280;26968;42.686;23.352;2023-02-20T07:26:21;95858.00;;;7.80;nan
41234;BME280;26968;42.686;23.352;2023-02-20T07:28:47;95756.06;;;7.28;nan
41234;BME280;26968;42.686;23.352;2023-02-20T07:31:12;95728.81;;;7.23;nan
41234;BME280;26968;42.686;23.352;2023-02-20T07:33:38;95719.34;;;6.93;nan
41234;BME280;26968;42.686;23.352;2023-02-20T07:36:04;95802.00;;;7.44;nan
41234;BME280;26968;42.686;23.352;2023-02-20T07:38:29;95883.47;;;8.02;nan
41234;BME280;26968;42.686;23.352;2023-02-20T07:40:55;95776.72;;;7.48;nan
41234;BME280;26968;42.686;23.352;2023-02-20T07:43:20;95844.97;;;7.73;nan
41234;BME280;26968;42.686;23.352;2023-02-20T07:45:45;95835.31;;;7.33;nan
41234;BME280;26968;42.686;23.352;2023-02-20T07:48:11;95861.13;;;7.60;nan
41234;BME280;26968;42.686;23.352;2023-02-20T07:50:36;95842.16;;;7.63;nan
41234;BME280;26968;42.686;23.352;2023-02-20T07:53:02;95865.91;;;7.63;nan
41234;BME280;26968;42.686;23.352;2023-02-20T07:55:27;95868.00;;;7.61;nan
41234;BME280;26968;42.686;23.352;2023-02-20T07:57:53;95827.97;;;7.35;nan
41234;BME280;26968;42.686;23.352;2023-02-20T08:00:23;95900.63;;;7.71;nan
41234;BME280;26968;42.686;23.352;2023-02-20T08:02:48;95908.75;;;7.82;nan
41234;BME280;26968;42.686;23.352;2023-02-20T08:05:14;95871.69;;;7.60;nan
41234;BME280;26968;42.686;23.352;2023-02-20T08:07:44;95840.97;;;7.54;nan
41234;BME280;26968;42.686;23.352;2023-02-20T08:10:10;95860.47;;;7.53;nan
41234;BME280;26968;42.686;23.352;2023-02-20T08:12:35;95844.88;;;7.51;nan
41234;BME280;26968;42.686;23.352;2023-02-20T08:15:01;95904.69;;;7.91;nan
41234;BME280;26968;42.686;23.352;2023-02-20T08:17:26;95859.63;;;7.81;nan
41234;BME280;26968;42.686;23.352;2023-02-20T08:19:52;95932.38;;;8.05;nan
41234;BME280;26968;42.686;23.352;2023-02-20T08:22:17;95895.34;;;8.00;nan
41234;BME280;26968;42.686;23.352;2023-02-20T08:24:42;95914.88;;;7.99;nan
41234;BME280;26968;42.686;23.352;2023-02-20T08:27:08;95821.09;;;7.51;nan
41234;BME280;26968;42.686;23.352;2023-02-20T08:29:33;95803.28;;;7.58;nan
41234;BME280;26968;42.686;23.352;2023-02-20T08:31:59;95929.53;;;8.23;nan
41234;BME280;26968;42.686;23.352;2023-02-20T08:34:24;95899.66;;;8.23;nan
41234;BME280;26968;42.686;23.352;2023-02-20T08:36:49;95846.56;;;7.74;nan
41234;BME280;26968;42.686;23.352;2023-02-20T08:39:15;95871.63;;;8.22;nan
41234;BME280;26968;42.686;23.352;2023-02-20T08:41:44;95896.72;;;8.36;nan
41234;BME280;26968;42.686;23.352;2023-02-20T08:44:11;95866.13;;;8.06;nan
41234;BME280;26968;42.686;23.352;2023-02-20T08:46:37;95810.25;;;7.81;nan
41234;BME280;26968;42.686;23.352;2023-02-20T08:49:02;95919.94;;;8.34;nan
41234;BME280;26968;42.686;23.352;2023-02-20T08:51:28;95892.03;;;8.09;nan
41234;BME280;26968;42.686;23.352;2023-02-20T08:53:53;95843.94;;;7.91;nan
41234;BME280;26968;42.686;23.352;2023-02-20T08:56:20;95835.69;;;7.87;nan
41234;BME280;26968;42.686;23.352;2023-02-20T08:58:46;95848.03;;;8.15;nan
41234;BME280;26968;42.686;23.352;2023-02-20T09:01:11;95855.38;;;8.13;nan
41234;BME280;26968;42.686;23.352;2023-02-20T09:03:37;95939.47;;;8.66;nan
41234;BME280;26968;42.686;23.352;2023-02-20T09:06:06;95901.19;;;8.52;nan
41234;BME280;26968;42.686;23.352;2023-02-20T09:08:32;95845.63;;;7.97;nan
41234;BME280;26968;42.686;23.352;2023-02-20T09:10:57;95867.06;;;8.17;nan
41234;BME280;26968;42.686;23.352;2023-02-20T09:13:23;95837.63;;;7.92;nan
41234;BME280;26968;42.686;23.352;2023-02-20T09:15:48;95887.34;;;8.45;nan
41234;BME280;26968;42.686;23.352;2023-02-20T09:18:14;95897.97;;;8.67;nan
41234;BME280;26968;42.686;23.352;2023-02-20T09:20:39;95932.56;;;8.65;nan
41234;BME280;26968;42.686;23.352;2023-02-20T09:23:05;95851.13;;;8.45;nan
41234;BME280;26968;42.686;23.352;2023-02-20T09:25:31;95835.75;;;8.42;nan
41234;BME280;26968;42.686;23.352;2023-02-20T09:27:56;95889.25;;;8.88;nan
41234;BME280;26968;42.686;23.352;2023-02-20T09:30:22;95813.00;;;8.25;nan
41234;BME280;26968;42.686;23.352;2023-02-20T09:32:48;95858.03;;;8.46;nan
41234;BME280;26968;42.686;23.352;2023-02-20T09:35:21;95861.34;;;8.59;nan
41234;BME280;26968;42.686;23.352;2023-02-20T09:37:49;95884.28;;;8.53;nan
41234;BME280;26968;42.686;23.352;2023-02-20T09:40:15;95885.13;;;8.75;nan
41234;BME280;26968;42.686;23.352;2023-02-20T09:46:00;95943.56;;;8.96;nan
41234;BME280;26968;42.686;23.352;2023-02-20T09:48:46;95850.97;;;8.52;nan
41234;BME280;26968;42.686;23.352;2023-02-20T09:51:18;95904.88;;;8.89;nan
41234;BME280;26968;42.686;23.352;2023-02-20T09:56:29;95775.94;;;8.36;nan
41234;BME280;26968;42.686;23.352;2023-02-20T09:59:06;95922.59;;;9.11;nan
41234;BME280;26968;42.686;23.352;2023-02-20T10:01:36;95876.06;;;8.71;nan
41234;BME280;26968;42.686;23.352;2023-02-20T10:04:06;95884.38;;;9.02;nan
41234;BME280;26968;42.686;23.352;2023-02-20T10:06:34;95897.38;;;9.25;nan
41234;BME280;26968;42.686;23.352;2023-02-20T10:09:00;95866.22;;;9.10;nan
41234;BME280;26968;42.686;23.352;2023-02-20T10:11:53;95809.22;;;8.76;nan
41234;BME280;26968;42.686;23.352;2023-02-20T10:17:53;95889.50;;;9.57;nan
41234;BME280;26968;42.686;23.352;2023-02-20T10:23:23;95870.63;;;10.81;nan
41234;BME280;26968;42.686;23.352;2023-02-20T10:25:40;95851.22;;;11.53;nan
41234;BME280;26968;42.686;23.352;2023-02-20T10:28:11;95843.88;;;12.16;nan
41234;BME280;26968;42.686;23.352;2023-02-20T10:30:42;95882.44;;;12.38;nan
41234;BME280;26968;42.686;23.352;2023-02-20T10:35:58;95846.25;;;11.92;nan
41234;BME280;26968;42.686;23.352;2023-02-20T10:38:30;95854.97;;;12.79;nan
41234;BME280;26968;42.686;23.352;2023-02-20T10:41:12;95876.78;;;12.75;nan
41234;BME280;26968;42.686;23.352;2023-02-20T10:43:45;95863.91;;;13.18;nan
41234;BME280;26968;42.686;23.352;2023-02-20T10:48:51;95761.44;;;13.00;nan
41234;BME280;26968;42.686;23.352;2023-02-20T10:51:25;95867.44;;;13.97;nan
41234;BME280;26968;42.686;23.352;2023-02-20T10:54:06;95784.53;;;13.64;nan
41234;BME280;26968;42.686;23.352;2023-02-20T10:56:37;95875.75;;;13.95;nan
41234;BME280;26968;42.686;23.352;2023-02-20T10:59:25;95852.53;;;13.57;nan
41234;BME280;26968;42.686;23.352;2023-02-20T11:01:58;95847.03;;;13.82;nan
41234;BME280;26968;42.686;23.352;2023-02-20T11:04:26;95854.97;;;14.26;nan
41234;BME280;26968;42.686;23.352;2023-02-20T11:07:19;95771.75;;;13.17;nan
41234;BME280;26968;42.686;23.352;2023-02-20T11:09:47;95897.47;;;12.99;nan
41234;BME280;26968;42.686;23.352;2023-02-20T11:12:50;95855.19;;;12.87;nan
41234;BME280;26968;42.686;23.352;2023-02-20T11:15:23;95680.09;;;12.15;nan
41234;BME280;26968;42.686;23.352;2023-02-20T11:17:53;95665.94;;;12.29;nan
41234;BME280;26968;42.686;23.352;2023-02-20T11:20:42;95298.78;;;9.53;nan
41234;BME280;26968;42.686;23.352;2023-02-20T11:26:24;95767.03;;;12.19;nan
41234;BME280;26968;42.686;23.352;2023-02-20T11:31:35;95797.88;;;12.00;nan
41234;BME280;26968;42.686;23.352;2023-02-20T11:34:03;95697.97;;;11.94;nan
41234;BME280;26968;42.686;23.352;2023-02-20T11:36:42;95803.72;;;12.27;nan
41234;BME280;26968;42.686;23.352;2023-02-20T11:39:35;95829.97;;;12.64;nan
41234;BME280;26968;42.686;23.352;2023-02-20T11:42:13;95819.34;;;12.64;nan
41234;BME280;26968;42.686;23.352;2023-02-20T11:44:42;95737.16;;;12.48;nan
41234;BME280;26968;42.686;23.352;2023-02-20T11:47:37;95822.66;;;13.00;nan
41234;BME280;26968;42.686;23.352;2023-02-20T11:50:14;95821.72;;;13.35;nan
41234;BME280;26968;42.686;23.352;2023-02-20T11:52:56;95836.44;;;13.23;nan
41234;BME280;26968;42.686;23.352;2023-02-20T11:55:23;95823.75;;;12.94;nan
41234;BME280;26968;42.686;23.352;2023-02-20T11:57:49;95759.97;;;12.69;nan
41234;BME280;26968;42.686;23.352;2023-02-20T12:00:21;95765.22;;;12.84;nan
41234;BME280;26968;42.686;23.352;2023-02-20T12:05:17;95725.38;;;12.69;nan
41234;BME280;26968;42.686;23.352;2023-02-20T12:10:28;95817.56;;;13.09;nan
41234;BME280;26968;42.686;23.352;2023-02-20T12:12:55;95801.59;;;13.14;nan
41234;BME280;26968;42.686;23.352;2023-02-20T12:15:24;95674.03;;;11.84;nan
41234;BME280;26968;42.686;23.352;2023-02-20T12:18:24;95801.16;;;12.87;nan
41234;BME280;26968;42.686;23.352;2023-02-20T12:31:54;95806.47;;;12.97;nan
41234;BME280;26968;42.686;23.352;2023-02-20T12:40:38;95849.75;;;13.23;nan
41234;BME280;26968;42.686;23.352;2023-02-20T12:48:35;95722.97;;;12.72;nan
41234;BME280;26968;42.686;23.352;2023-02-20T12:51:16;95811.38;;;13.34;nan
41234;BME280;26968;42.686;23.352;2023-02-20T12:56:52;95787.84;;;12.82;nan
41234;BME280;26968;42.686;23.352;2023-02-20T13:02:22;95790.94;;;13.09;nan
41234;BME280;26968;42.686;23.352;2023-02-20T13:05:00;95765.16;;;12.99;nan
41234;BME280;26968;42.686;23.352;2023-02-20T13:07:33;95810.78;;;13.42;nan
41234;BME280;26968;42.686;23.352;2023-02-20T13:10:05;95758.31;;;12.88;nan
41234;BME280;26968;42.686;23.352;2023-02-20T13:12:32;95829.78;;;13.25;nan
41234;BME280;26968;42.686;23.352;2023-02-20T13:18:27;95836.47;;;13.18;nan
41234;BME280;26968;42.686;23.352;2023-02-20T13:20:33;95806.00;;;12.69;nan
41234;BME280;26968;42.686;23.352;2023-02-20T13:25:38;95812.06;;;12.85;nan
41234;BME280;26968;42.686;23.352;2023-02-20T13:28:33;95812.28;;;13.04;nan
41234;BME280;26968;42.686;23.352;2023-02-20T13:31:09;95769.72;;;12.94;nan
41234;BME280;26968;42.686;23.352;2023-02-20T13:33:36;95763.91;;;12.82;nan
41234;BME280;26968;42.686;23.352;2023-02-20T13:36:03;95723.69;;;12.19;nan
41234;BME280;26968;42.686;23.352;2023-02-20T13:38:29;95753.09;;;12.53;nan
41234;BME280;26968;42.686;23.352;2023-02-20T13:45:46;95826.66;;;13.03;nan
41234;BME280;26968;42.686;23.352;2023-02-20T13:53:57;95833.66;;;12.79;nan
41234;BME280;26968;42.686;23.352;2023-02-20T13:59:07;95854.16;;;12.68;nan
41234;BME280;26968;42.686;23.352;2023-02-20T14:04:30;95727.22;;;11.79;nan
41234;BME280;26968;42.686;23.352;2023-02-20T14:06:56;95685.50;;;11.29;nan
41234;BME280;26968;42.686;23.352;2023-02-20T14:09:25;95731.97;;;11.56;nan
41234;BME280;26968;42.686;23.352;2023-02-20T14:12:03;95806.38;;;11.72;nan
41234;BME280;26968;42.686;23.352;2023-02-20T14:14:50;95823.94;;;11.98;nan
41234;BME280;26968;42.686;23.352;2023-02-20T14:17:18;95824.22;;;11.86;nan
41234;BME280;26968;42.686;23.352;2023-02-20T14:19:47;95735.16;;;11.53;nan
41234;BME280;26968;42.686;23.352;2023-02-20T14:24:45;95825.28;;;11.80;nan
41234;BME280;26968;42.686;23.352;2023-02-20T14:27:29;95811.66;;;11.41;nan
41234;BME280;26968;42.686;23.352;2023-02-20T14:32:30;95777.09;;;11.31;nan
41234;BME280;26968;42.686;23.352;2023-02-20T14:35:10;95746.53;;;11.18;nan
41234;BME280;26968;42.686;23.352;2023-02-20T14:37:45;95850.47;;;11.63;nan
41234;BME280;26968;42.686;23.352;2023-02-20T14:40:30;95706.63;;;10.78;nan
41234;BME280;26968;42.686;23.352;2023-02-20T14:43:01;95763.78;;;11.06;nan
41234;BME280;26968;42.686;23.352;2023-02-20T14:45:26;95801.75;;;11.11;nan
41234;BME280;26968;42.686;23.352;2023-02-20T14:47:54;95856.28;;;11.49;nan
41234;BME280;26968;42.686;23.352;2023-02-20T14:50:21;95867.19;;;11.63;nan
41234;BME280;26968;42.686;23.352;2023-02-20T14:53:20;95757.09;;;10.88;nan
41234;BME280;26968;42.686;23.352;2023-02-20T14:55:48;95750.69;;;10.84;nan
41234;BME280;26968;42.686;23.352;2023-02-20T14:58:18;95798.84;;;11.23;nan
41234;BME280;26968;42.686;23.352;2023-02-20T15:00:45;95874.06;;;11.54;nan
41234;BME280;26968;42.686;23.352;2023-02-20T15:03:24;95772.47;;;10.86;nan
41234;BME280;26968;42.686;23.352;2023-02-20T15:05:51;95821.91;;;11.07;nan
41234;BME280;26968;42.686;23.352;2023-02-20T15:10:52;95888.91;;;11.35;nan
41234;BME280;26968;42.686;23.352;2023-02-20T15:13:21;95870.28;;;11.25;nan
41234;BME280;26968;42.686;23.352;2023-02-20T15:15:50;95875.34;;;11.26;nan
41234;BME280;26968;42.686;23.352;2023-02-20T15:18:34;95779.59;;;10.75;nan
41234;BME280;26968;42.686;23.352;2023-02-20T15:21:00;95833.59;;;11.16;nan
41234;BME280;26968;42.686;23.352;2023-02-20T15:23:30;95866.00;;;11.13;nan
41234;BME280;26968;42.686;23.352;2023-02-20T15:25:56;95786.16;;;10.58;nan